Time;durP1;ratioP1;P1;durP2;ratioP2;P2;SDS_P1;SDS_P2;PMS_P1;PMS_P2;Temp;Humidity;BMP_temperature;BMP_pressure;BME280_temperature;BME280_humidity;BME280_pressure;Samples;Min_cycle;Max_cycle;Signal;HPM_P1;HPM_P2
2023/06/21 00:01:38;;;;;;;14.55;10.60;;;19.80;99.90;;;;;;4983116;28;20023;-76
2023/06/21 00:04:08;;;;;;;14.35;11.23;;;19.70;99.90;;;;;;4998193;28;20300;-76
2023/06/21 00:06:34;;;;;;;14.23;10.50;;;19.70;99.90;;;;;;5018934;28;20364;-76
2023/06/21 00:09:04;;;;;;;16.38;12.02;;;19.70;99.90;;;;;;5018493;28;20048;-76
2023/06/21 00:11:30;;;;;;;15.80;11.90;;;19.70;99.90;;;;;;5017664;28;20030;-76
2023/06/21 00:13:56;;;;;;;15.27;11.80;;;19.70;99.90;;;;;;5001633;28;20068;-76
2023/06/21 00:16:23;;;;;;;17.13;12.40;;;19.70;99.90;;;;;;5017943;28;20030;-76
2023/06/21 00:18:48;;;;;;;15.90;12.57;;;19.60;99.90;;;;;;5018468;28;20067;-76
2023/06/21 00:21:14;;;;;;;15.95;12.98;;;19.60;99.90;;;;;;5017125;28;20057;-76
2023/06/21 00:23:42;;;;;;;17.10;13.23;;;19.60;99.90;;;;;;5017509;28;20079;-76
2023/06/21 00:26:08;;;;;;;16.70;13.20;;;19.70;99.90;;;;;;5016607;28;20172;-76
2023/06/21 00:28:34;;;;;;;18.70;13.95;;;19.60;99.90;;;;;;5001190;28;20033;-76
2023/06/21 00:30:59;;;;;;;18.33;13.85;;;19.60;99.90;;;;;;5000648;27;20105;-76
2023/06/21 00:33:25;;;;;;;17.92;14.20;;;19.60;99.90;;;;;;5017602;28;20049;-76
2023/06/21 00:35:52;;;;;;;20.75;14.88;;;19.60;99.90;;;;;;4985100;28;20097;-76
2023/06/21 00:38:18;;;;;;;18.38;15.13;;;19.60;99.90;;;;;;5001833;28;20061;-76
2023/06/21 00:40:45;;;;;;;17.75;14.35;;;19.60;99.90;;;;;;4985213;28;20159;-76
2023/06/21 00:43:11;;;;;;;18.05;14.68;;;19.60;99.90;;;;;;5017189;28;20061;-76
2023/06/21 00:45:45;;;;;;;19.02;15.40;;;19.60;99.90;;;;;;4999628;28;20417;-76
2023/06/21 00:48:11;;;;;;;19.33;15.48;;;19.60;99.90;;;;;;5001002;28;20048;-76
2023/06/21 00:50:40;;;;;;;19.77;15.30;;;19.60;99.90;;;;;;5010672;28;20284;-76
2023/06/21 00:53:06;;;;;;;18.90;15.32;;;19.60;99.90;;;;;;5016968;28;20171;-76
2023/06/21 00:55:32;;;;;;;19.88;16.42;;;19.60;99.90;;;;;;4989027;28;20228;-76
2023/06/21 00:57:58;;;;;;;18.92;15.48;;;19.50;99.90;;;;;;5019800;28;20328;-76
2023/06/21 01:00:25;;;;;;;19.55;15.73;;;19.40;99.90;;;;;;5004793;28;20034;-76
2023/06/21 01:02:53;;;;;;;20.02;16.58;;;19.50;99.90;;;;;;5019204;28;20052;-76
2023/06/21 01:05:22;;;;;;;20.08;16.40;;;19.50;99.90;;;;;;5019075;28;20264;-76
2023/06/21 01:08:29;;;;;;;21.02;16.30;;;19.60;99.90;;;;;;5020293;28;20036;-76
2023/06/21 01:10:55;;;;;;;21.48;16.40;;;19.60;99.90;;;;;;5020229;28;20034;-76
2023/06/21 01:13:20;;;;;;;19.60;15.30;;;19.60;99.90;;;;;;5021073;28;20032;-76
2023/06/21 01:15:50;;;;;;;21.15;16.30;;;19.50;99.90;;;;;;5003478;28;20050;-76
2023/06/21 01:18:20;;;;;;;20.45;16.35;;;19.50;99.90;;;;;;5017521;28;20315;-76
2023/06/21 01:20:53;;;;;;;20.05;15.55;;;19.50;99.90;;;;;;5004415;28;20306;-76
2023/06/21 01:23:31;;;;;;;20.85;15.75;;;19.60;99.90;;;;;;5020007;28;20260;-76
2023/06/21 01:26:22;;;;;;;20.75;16.42;;;19.60;99.90;;;;;;5004660;28;20079;-76
2023/06/21 01:29:11;;;;;;;20.70;16.52;;;19.50;99.90;;;;;;5002707;28;20026;-76
2023/06/21 01:31:42;;;;;;;20.38;16.00;;;19.60;99.90;;;;;;5019624;28;20328;-76
2023/06/21 01:34:15;;;;;;;20.90;16.55;;;19.50;99.90;;;;;;5018996;28;20025;-76
2023/06/21 01:36:41;;;;;;;21.33;16.35;;;19.50;99.90;;;;;;5020803;28;20030;-76
2023/06/21 01:39:09;;;;;;;20.63;16.67;;;19.60;99.90;;;;;;5019582;28;20083;-76
2023/06/21 01:41:36;;;;;;;18.88;15.38;;;19.60;99.90;;;;;;5020788;28;20014;-76
2023/06/21 01:44:09;;;;;;;20.95;15.70;;;19.50;99.90;;;;;;5019974;28;20250;-76
2023/06/21 01:46:39;;;;;;;21.50;16.25;;;19.60;99.90;;;;;;5020687;28;20098;-76
2023/06/21 01:49:06;;;;;;;18.77;15.40;;;19.60;99.90;;;;;;5001575;28;20101;-76
2023/06/21 01:51:35;;;;;;;18.42;14.55;;;19.50;99.90;;;;;;5003151;28;20026;-76
2023/06/21 01:54:01;;;;;;;18.90;14.93;;;19.50;99.90;;;;;;5004188;28;20222;-76
2023/06/21 01:56:28;;;;;;;20.42;15.38;;;19.50;99.90;;;;;;5004350;28;20061;-76
2023/06/21 01:58:54;;;;;;;19.00;15.27;;;19.50;99.90;;;;;;5020328;28;20283;-76
2023/06/21 02:01:21;;;;;;;19.80;16.33;;;19.50;99.90;;;;;;5017488;28;20022;-76
2023/06/21 02:03:59;;;;;;;18.83;15.10;;;19.50;99.90;;;;;;5018625;28;20022;-76
2023/06/21 02:06:30;;;;;;;20.48;15.18;;;19.50;99.90;;;;;;5020412;28;20085;-76
2023/06/21 02:08:59;;;;;;;19.42;15.30;;;19.50;99.90;;;;;;5020402;28;20088;-76
2023/06/21 02:11:26;;;;;;;19.83;15.98;;;19.50;99.90;;;;;;5019333;28;20065;-76
2023/06/21 02:13:52;;;;;;;20.50;15.68;;;19.50;99.90;;;;;;5002926;28;20026;-76
2023/06/21 02:16:25;;;;;;;19.25;15.43;;;19.50;99.90;;;;;;5003672;28;20025;-76
2023/06/21 02:18:51;;;;;;;20.55;14.77;;;19.50;99.90;;;;;;5002783;28;20293;-76
2023/06/21 02:21:19;;;;;;;19.98;15.45;;;19.50;99.90;;;;;;5001201;28;20038;-76
2023/06/21 02:23:44;;;;;;;21.40;16.35;;;19.50;99.90;;;;;;4987052;28;20034;-76
2023/06/21 02:26:10;;;;;;;21.27;16.73;;;19.50;99.90;;;;;;5019748;28;20028;-76
2023/06/21 02:28:36;;;;;;;21.38;16.60;;;19.50;99.90;;;;;;5003675;28;20078;-76
2023/06/21 02:31:02;;;;;;;23.67;17.38;;;19.50;99.90;;;;;;5002566;28;20034;-76
2023/06/21 02:33:27;;;;;;;22.55;18.00;;;19.50;99.90;;;;;;5002636;28;20029;-76
2023/06/21 02:35:53;;;;;;;22.52;18.10;;;19.50;99.90;;;;;;5001352;28;20026;-76
2023/06/21 02:38:19;;;;;;;22.15;18.20;;;19.50;99.90;;;;;;5019714;28;20026;-76
2023/06/21 02:40:45;;;;;;;25.90;21.90;;;19.50;99.90;;;;;;5003234;28;20252;-76
2023/06/21 02:43:11;;;;;;;25.45;20.55;;;19.40;99.90;;;;;;5001514;28;20025;-76
2023/06/21 02:45:37;;;;;;;25.45;21.85;;;19.40;99.90;;;;;;5019701;28;20024;-76
2023/06/21 02:48:04;;;;;;;26.00;22.52;;;19.40;99.90;;;;;;5002064;28;20058;-76
2023/06/21 02:50:30;;;;;;;25.38;21.50;;;19.40;99.90;;;;;;5019440;28;20058;-76
2023/06/21 02:52:56;;;;;;;27.77;22.33;;;19.40;99.90;;;;;;5001613;28;20081;-76
2023/06/21 02:55:22;;;;;;;27.85;22.08;;;19.30;99.90;;;;;;5019426;28;20168;-76
2023/06/21 02:57:48;;;;;;;25.77;21.52;;;19.30;99.90;;;;;;5019586;28;20081;-76
2023/06/21 03:00:28;;;;;;;29.25;22.13;;;19.30;99.90;;;;;;5012044;28;20045;-76
2023/06/21 03:03:00;;;;;;;27.58;23.15;;;19.30;99.90;;;;;;5001378;28;20026;-76
2023/06/21 03:05:30;;;;;;;27.80;23.50;;;19.20;99.90;;;;;;5088181;28;20022;-76
2023/06/21 03:07:57;;;;;;;26.95;22.90;;;19.30;99.90;;;;;;5019747;28;20057;-75
2023/06/21 03:10:23;;;;;;;28.70;23.83;;;19.20;99.90;;;;;;5018102;28;20088;-76
2023/06/21 03:12:49;;;;;;;29.88;24.17;;;19.20;99.90;;;;;;5002347;28;20232;-76
2023/06/21 03:15:15;;;;;;;28.52;24.48;;;19.10;99.90;;;;;;5016700;28;20045;-76
2023/06/21 03:17:40;;;;;;;30.77;23.83;;;19.10;99.90;;;;;;5018742;28;20068;-76
2023/06/21 03:20:12;;;;;;;31.73;24.42;;;19.10;99.90;;;;;;5002787;28;20041;-76
2023/06/21 03:22:42;;;;;;;32.30;25.98;;;19.10;99.90;;;;;;5019432;28;20033;-76
2023/06/21 03:25:10;;;;;;;32.50;27.42;;;19.10;99.90;;;;;;5015689;28;20099;-76
2023/06/21 03:27:35;;;;;;;33.25;27.13;;;19.10;99.90;;;;;;4987018;28;20079;-76
2023/06/21 03:30:02;;;;;;;31.90;26.70;;;19.10;99.90;;;;;;5018940;28;20093;-76
2023/06/21 03:32:28;;;;;;;32.92;27.30;;;19.10;99.90;;;;;;5001454;28;20041;-76
2023/06/21 03:34:53;;;;;;;32.88;27.13;;;19.10;99.90;;;;;;5001594;28;20034;-76
2023/06/21 03:37:19;;;;;;;31.05;27.15;;;19.10;99.90;;;;;;5003007;28;20032;-76
2023/06/21 03:39:45;;;;;;;32.78;27.27;;;19.10;99.90;;;;;;5001775;28;20310;-76
2023/06/21 03:42:10;;;;;;;31.67;26.35;;;19.20;99.90;;;;;;5002411;28;20026;-76
2023/06/21 03:44:36;;;;;;;32.53;25.92;;;19.10;99.90;;;;;;5000377;28;20033;-76
2023/06/21 03:47:02;;;;;;;32.00;26.10;;;19.20;99.90;;;;;;5003020;28;20105;-76
2023/06/21 03:49:30;;;;;;;34.03;26.58;;;19.10;99.90;;;;;;5002566;28;20018;-76
2023/06/21 03:51:55;;;;;;;32.17;27.40;;;19.10;99.90;;;;;;5002523;28;20030;-76
2023/06/21 03:54:21;;;;;;;29.55;25.35;;;19.10;99.90;;;;;;5017791;28;20061;-76
2023/06/21 03:56:47;;;;;;;32.53;26.77;;;19.10;99.90;;;;;;5001482;28;20018;-75
2023/06/21 03:59:14;;;;;;;31.42;26.42;;;19.20;99.90;;;;;;5018700;28;20194;-76
2023/06/21 04:01:39;;;;;;;33.03;26.48;;;19.10;99.90;;;;;;5018724;28;20018;-76
2023/06/21 04:04:05;;;;;;;34.25;28.23;;;19.20;99.90;;;;;;5018780;28;20233;-76
2023/06/21 04:06:31;;;;;;;35.85;28.27;;;19.20;99.90;;;;;;5000952;28;20101;-76
2023/06/21 04:08:57;;;;;;;37.80;28.40;;;19.20;99.90;;;;;;5001667;28;20030;-76
2023/06/21 04:11:22;;;;;;;34.63;29.25;;;19.20;99.90;;;;;;5018651;28;20026;-76
2023/06/21 04:13:48;;;;;;;35.47;27.30;;;19.20;99.90;;;;;;5018473;28;20106;-76
2023/06/21 04:16:14;;;;;;;34.78;27.92;;;19.20;99.90;;;;;;5016342;28;20256;-76
2023/06/21 04:18:40;;;;;;;32.90;27.92;;;19.20;99.90;;;;;;5018497;28;20288;-76
2023/06/21 04:21:06;;;;;;;33.63;28.33;;;19.20;99.90;;;;;;5001261;28;20057;-76
2023/06/21 04:23:32;;;;;;;36.85;29.45;;;19.20;99.90;;;;;;5001366;28;20041;-76
2023/06/21 04:25:58;;;;;;;35.03;29.13;;;19.20;99.90;;;;;;5002117;28;20089;-76
2023/06/21 04:28:25;;;;;;;37.33;29.10;;;19.30;99.90;;;;;;5003999;28;20018;-76
2023/06/21 04:30:58;;;;;;;33.30;27.67;;;19.20;99.90;;;;;;5021915;28;20034;-76
2023/06/21 04:33:24;;;;;;;;;;;19.20;99.90;;;;;;5021166;28;20029;-76
2023/06/21 04:35:50;;;;;;;37.63;29.92;;;19.30;99.90;;;;;;5021722;28;19905;-77
2023/06/21 04:38:15;;;;;;;37.10;29.50;;;19.20;99.90;;;;;;5004450;28;20053;-77
2023/06/21 04:40:42;;;;;;;35.72;28.77;;;19.20;99.90;;;;;;5021595;28;20063;-76
2023/06/21 04:43:08;;;;;;;40.20;30.17;;;19.30;99.90;;;;;;5004480;28;20089;-76
2023/06/21 04:45:33;;;;;;;37.10;28.85;;;19.30;99.90;;;;;;5026775;28;20010;-76
2023/06/21 04:48:00;;;;;;;36.08;28.40;;;19.30;99.90;;;;;;5021669;28;20179;-76
2023/06/21 04:50:26;;;;;;;35.53;28.63;;;19.40;99.90;;;;;;5004858;28;20030;-76
2023/06/21 04:52:57;;;;;;;34.55;28.33;;;19.40;99.90;;;;;;5005446;28;20030;-76
2023/06/21 04:55:24;;;;;;;34.97;27.77;;;19.40;99.90;;;;;;5004806;28;20118;-77
2023/06/21 04:57:50;;;;;;;34.63;26.85;;;19.40;99.90;;;;;;5020767;28;20037;-77
2023/06/21 05:00:17;;;;;;;35.45;28.00;;;19.40;99.90;;;;;;5020165;28;20030;-77
2023/06/21 05:02:43;;;;;;;35.13;26.73;;;19.40;99.90;;;;;;5005233;28;20022;-77
2023/06/21 05:05:09;;;;;;;34.35;25.80;;;19.50;99.90;;;;;;5002411;28;20132;-76
2023/06/21 05:07:37;;;;;;;32.70;26.27;;;19.50;99.90;;;;;;5003521;28;20259;-77
2023/06/21 05:10:08;;;;;;;31.92;24.98;;;19.50;99.90;;;;;;5005211;28;20045;-76
2023/06/21 05:12:34;;;;;;;33.00;25.23;;;19.50;99.90;;;;;;5020415;28;20018;-77
2023/06/21 05:15:00;;;;;;;32.45;25.50;;;19.50;99.90;;;;;;5003692;28;20034;-77
2023/06/21 05:17:26;;;;;;;31.10;24.50;;;19.50;99.90;;;;;;5020115;28;20294;-77
2023/06/21 05:19:51;;;;;;;31.10;23.88;;;19.50;99.90;;;;;;5003854;28;20071;-77
2023/06/21 05:22:17;;;;;;;29.35;22.77;;;19.50;99.90;;;;;;4984066;28;20279;-77
2023/06/21 05:24:43;;;;;;;31.60;23.45;;;19.50;99.90;;;;;;5003827;28;20033;-77
2023/06/21 05:27:09;;;;;;;30.42;22.20;;;19.50;99.90;;;;;;5019744;28;20076;-77
2023/06/21 05:29:35;;;;;;;28.25;21.33;;;19.50;99.90;;;;;;5004609;28;20018;-77
2023/06/21 05:32:01;;;;;;;28.33;19.92;;;19.60;99.90;;;;;;5003963;28;20082;-77
2023/06/21 05:34:28;;;;;;;28.85;20.15;;;19.60;99.90;;;;;;5019673;28;20010;-77
2023/06/21 05:36:54;;;;;;;28.17;20.20;;;19.50;99.90;;;;;;5018031;28;20251;-77
2023/06/21 05:39:20;;;;;;;26.17;19.33;;;19.60;99.90;;;;;;5006334;28;20033;-77
2023/06/21 05:41:46;;;;;;;26.55;19.35;;;19.60;99.90;;;;;;5018838;28;20022;-77
2023/06/21 05:44:13;;;;;;;25.73;17.75;;;19.60;99.90;;;;;;5019646;28;20279;-77
2023/06/21 05:46:39;;;;;;;23.17;17.65;;;19.60;99.90;;;;;;5020796;28;20010;-77
2023/06/21 05:49:04;;;;;;;26.83;18.30;;;19.60;99.90;;;;;;5002292;28;20140;-77
2023/06/21 05:51:30;;;;;;;24.15;17.70;;;19.70;99.90;;;;;;5001508;28;20022;-77
2023/06/21 05:53:56;;;;;;;22.00;15.98;;;19.70;99.90;;;;;;4987152;28;20018;-77
2023/06/21 05:56:24;;;;;;;25.48;16.77;;;19.70;99.90;;;;;;5004392;28;20026;-77
2023/06/21 05:58:51;;;;;;;22.45;16.13;;;19.80;99.90;;;;;;5004236;28;20050;-77
2023/06/21 06:01:16;;;;;;;24.67;16.77;;;19.80;99.90;;;;;;5004273;28;20180;-78
2023/06/21 06:03:42;;;;;;;22.95;16.05;;;19.80;99.90;;;;;;5000331;28;20017;-77
2023/06/21 06:06:08;;;;;;;23.55;16.25;;;19.80;99.90;;;;;;5002988;28;20018;-77
2023/06/21 06:08:34;;;;;;;21.85;14.38;;;19.90;99.90;;;;;;4984045;28;20018;-77
2023/06/21 06:10:59;;;;;;;20.70;14.27;;;19.90;99.90;;;;;;4999518;28;20244;-77
2023/06/21 06:13:25;;;;;;;21.85;14.77;;;19.90;99.90;;;;;;5014557;28;20097;-77
2023/06/21 06:15:51;;;;;;;20.58;13.90;;;19.90;99.90;;;;;;4985653;28;20160;-77
2023/06/21 06:18:17;;;;;;;20.55;14.63;;;19.90;99.90;;;;;;5002576;28;20137;-77
2023/06/21 06:20:43;;;;;;;20.65;12.98;;;20.00;99.90;;;;;;5003728;28;20287;-78
2023/06/21 06:23:12;;;;;;;21.13;13.90;;;19.90;99.90;;;;;;5020492;28;20130;-77
2023/06/21 06:25:39;;;;;;;19.27;12.38;;;19.90;99.90;;;;;;5018271;28;20022;-77
2023/06/21 06:28:06;;;;;;;19.65;12.07;;;20.00;99.90;;;;;;5016795;28;20171;-78
2023/06/21 06:30:32;;;;;;;18.63;12.73;;;20.00;99.90;;;;;;4986945;28;20252;-78
2023/06/21 06:32:58;;;;;;;20.60;13.63;;;20.10;99.90;;;;;;5019186;28;20072;-77
2023/06/21 06:35:23;;;;;;;19.38;11.55;;;20.10;99.90;;;;;;5019769;28;20033;-77
2023/06/21 06:37:49;;;;;;;19.55;12.90;;;20.20;99.90;;;;;;5002818;28;20026;-77
2023/06/21 06:40:15;;;;;;;19.23;13.65;;;20.20;99.90;;;;;;4986335;28;20253;-77
2023/06/21 06:42:40;;;;;;;20.00;12.55;;;20.40;99.90;;;;;;4987382;28;20026;-77
2023/06/21 06:45:07;;;;;;;20.65;12.93;;;20.40;99.90;;;;;;5019809;28;20021;-77
2023/06/21 06:47:33;;;;;;;17.77;11.98;;;20.50;99.90;;;;;;5020150;28;20290;-77
2023/06/21 06:50:01;;;;;;;20.20;12.23;;;20.60;99.90;;;;;;5002270;28;20033;-77
2023/06/21 06:52:27;;;;;;;17.70;11.82;;;20.70;99.90;;;;;;4991760;28;20032;-77
2023/06/21 06:54:53;;;;;;;19.92;12.18;;;20.70;99.90;;;;;;5003288;28;20049;-77
2023/06/21 06:57:19;;;;;;;18.30;12.40;;;20.80;99.90;;;;;;5018803;28;20251;-77
2023/06/21 06:59:45;;;;;;;18.40;11.68;;;20.80;99.90;;;;;;4987061;28;20262;-77
2023/06/21 07:02:10;;;;;;;17.20;10.98;;;20.90;99.90;;;;;;5001557;28;20028;-77
2023/06/21 07:04:36;;;;;;;16.40;10.85;;;21.00;99.90;;;;;;5003243;28;20197;-77
2023/06/21 07:07:02;;;;;;;16.17;10.40;;;21.10;99.90;;;;;;5019573;28;20049;-77
2023/06/21 07:09:28;;;;;;;14.85;9.20;;;21.20;99.90;;;;;;4986034;28;20093;-77
2023/06/21 07:11:59;;;;;;;16.77;9.75;;;21.30;99.90;;;;;;5017126;28;20026;-77
2023/06/21 07:14:25;;;;;;;14.55;9.43;;;21.30;99.90;;;;;;5017122;28;20084;-77
2023/06/21 07:16:51;;;;;;;16.00;9.90;;;21.30;99.90;;;;;;5002243;28;20045;-76
2023/06/21 07:19:18;;;;;;;14.25;9.57;;;21.40;99.90;;;;;;5018285;28;20037;-77
2023/06/21 07:21:44;;;;;;;14.38;9.20;;;21.60;99.90;;;;;;5001964;28;20090;-77
2023/06/21 07:24:11;;;;;;;16.00;9.38;;;21.60;99.90;;;;;;4999943;28;20169;-77
2023/06/21 07:26:38;;;;;;;14.85;8.48;;;21.70;99.90;;;;;;5019192;28;20152;-77
2023/06/21 07:29:03;;;;;;;15.52;8.27;;;21.80;99.90;;;;;;5002899;28;20025;-77
2023/06/21 07:31:31;;;;;;;14.10;8.73;;;21.90;99.90;;;;;;5019136;28;20083;-77
2023/06/21 07:33:57;;;;;;;15.23;8.98;;;21.90;99.90;;;;;;5016992;28;20175;-77
2023/06/21 07:36:23;;;;;;;14.27;7.80;;;22.00;99.90;;;;;;5002838;28;20036;-77
2023/06/21 07:38:48;;;;;;;13.70;7.45;;;22.10;99.90;;;;;;5018885;28;20029;-77
2023/06/21 07:41:17;;;;;;;14.65;7.90;;;22.10;99.90;;;;;;5002815;28;20025;-77
2023/06/21 07:43:43;;;;;;;13.50;7.22;;;22.30;99.90;;;;;;5001505;28;20025;-77
2023/06/21 07:46:09;;;;;;;14.40;7.80;;;22.30;99.90;;;;;;5018222;28;20018;-78
2023/06/21 07:48:35;;;;;;;12.55;7.05;;;22.60;99.90;;;;;;5018795;28;20026;-77
2023/06/21 07:51:01;;;;;;;14.13;7.10;;;22.30;99.90;;;;;;5002579;28;20025;-77
2023/06/21 07:53:27;;;;;;;12.57;6.65;;;22.40;99.90;;;;;;5018896;28;20025;-77
2023/06/21 07:55:52;;;;;;;14.45;7.07;;;22.30;99.90;;;;;;5016068;28;20029;-77
2023/06/21 07:58:18;;;;;;;12.65;7.20;;;22.40;99.90;;;;;;5001930;28;20044;-77
2023/06/21 08:00:44;;;;;;;13.13;7.53;;;22.40;99.90;;;;;;5018885;28;20030;-77
2023/06/21 08:03:10;;;;;;;13.50;7.75;;;22.50;99.90;;;;;;5021151;28;20033;-77
2023/06/21 08:05:35;;;;;;;13.50;7.03;;;22.70;99.90;;;;;;5003220;28;20025;-77
2023/06/21 08:08:02;;;;;;;13.25;6.65;;;22.70;99.90;;;;;;5005283;28;20026;-77
2023/06/21 08:10:30;;;;;;;12.48;6.22;;;22.80;99.90;;;;;;5005699;28;20030;-77
2023/06/21 08:12:56;;;;;;;11.85;6.38;;;22.90;99.90;;;;;;5022593;28;20042;-77
2023/06/21 08:15:22;;;;;;;12.90;6.43;;;22.90;99.90;;;;;;5020683;28;20168;-77
2023/06/21 08:17:49;;;;;;;12.00;6.05;;;23.00;99.90;;;;;;5003769;28;20049;-77
2023/06/21 08:20:15;;;;;;;11.27;6.35;;;22.90;99.90;;;;;;5005511;28;20263;-77
2023/06/21 08:22:40;;;;;;;10.65;6.05;;;23.00;99.90;;;;;;5022228;28;20045;-77
2023/06/21 08:25:07;;;;;;;12.35;6.15;;;23.00;99.90;;;;;;5005446;28;20022;-77
2023/06/21 08:27:32;;;;;;;12.10;5.70;;;23.10;99.90;;;;;;5002893;28;20251;-77
2023/06/21 08:29:58;;;;;;;11.15;5.82;;;23.00;99.90;;;;;;4988867;28;20074;-77
2023/06/21 08:32:24;;;;;;;12.13;5.60;;;23.00;99.90;;;;;;5005659;28;20041;-77
2023/06/21 08:34:52;;;;;;;11.32;6.20;;;23.10;99.90;;;;;;5021742;28;20022;-77
2023/06/21 08:37:24;;;;;;;10.63;6.05;;;23.00;99.90;;;;;;5003003;28;20364;-77
2023/06/21 08:39:52;;;;;;;11.48;5.97;;;23.00;99.90;;;;;;5021165;28;20026;-77
2023/06/21 08:42:23;;;;;;;11.80;5.90;;;23.10;99.90;;;;;;5021891;28;20244;-77
2023/06/21 08:44:50;;;;;;;14.93;5.70;;;23.20;99.90;;;;;;4989258;28;20026;-77
2023/06/21 08:47:18;;;;;;;10.93;6.00;;;23.40;99.90;;;;;;5018911;28;20487;-77
2023/06/21 08:49:47;;;;;;;13.40;6.50;;;23.50;99.90;;;;;;5004473;28;20030;-77
2023/06/21 08:52:20;;;;;;;12.18;6.43;;;23.50;99.90;;;;;;5004367;28;20025;-77
2023/06/21 08:54:56;;;;;;;11.80;5.55;;;23.60;99.90;;;;;;5021317;28;20018;-77
2023/06/21 08:57:22;;;;;;;11.00;6.20;;;23.60;99.90;;;;;;5021405;28;20287;-77
2023/06/21 09:00:02;;;;;;;10.88;5.75;;;23.30;99.90;;;;;;5003557;28;20014;-77
2023/06/21 09:02:43;;;;;;;11.70;5.15;;;23.30;99.90;;;;;;4988170;28;20037;-77
2023/06/21 09:05:19;;;;;;;10.85;5.57;;;26.50;99.90;;;;;;5021150;28;20030;-77
2023/06/21 09:07:45;;;;;;;11.10;5.68;;;23.70;99.90;;;;;;5021359;28;20172;-77
2023/06/21 09:10:15;;;;;;;11.57;5.50;;;23.70;99.90;;;;;;5019310;28;20022;-77
2023/06/21 09:12:43;;;;;;;11.57;5.07;;;23.70;99.90;;;;;;5002487;28;20046;-77
2023/06/21 09:15:09;;;;;;;12.02;5.63;;;23.80;99.90;;;;;;5020205;28;20034;-77
2023/06/21 09:17:37;;;;;;;12.07;5.43;;;23.90;99.90;;;;;;5020497;28;20042;-77
2023/06/21 09:20:03;;;;;;;10.32;5.22;;;24.10;99.90;;;;;;4988518;28;20205;-77
2023/06/21 09:22:30;;;;;;;12.20;5.32;;;24.20;99.90;;;;;;5005257;28;20256;-77
2023/06/21 09:24:56;;;;;;;11.07;5.10;;;24.30;99.90;;;;;;5019387;28;20034;-77
2023/06/21 09:27:22;;;;;;;11.27;5.07;;;24.40;99.90;;;;;;5004630;28;20017;-77
2023/06/21 09:29:49;;;;;;;10.07;4.88;;;24.30;99.90;;;;;;5004645;28;20325;-77
2023/06/21 09:32:15;;;;;;;9.93;4.88;;;24.50;99.90;;;;;;5004689;28;20061;-77
2023/06/21 09:34:41;;;;;;;9.70;4.80;;;24.50;99.90;;;;;;5003619;28;20037;-77
2023/06/21 09:37:06;;;;;;;9.85;4.78;;;24.70;99.90;;;;;;5020954;28;20030;-77
2023/06/21 09:39:32;;;;;;;10.80;4.22;;;24.70;99.90;;;;;;5003656;28;20025;-77
2023/06/21 09:41:58;;;;;;;11.98;5.03;;;24.70;99.90;;;;;;5020647;28;20026;-77
2023/06/21 09:44:24;;;;;;;9.85;4.18;;;24.80;99.90;;;;;;5019620;28;20029;-77
2023/06/21 09:46:58;;;;;;;10.20;4.32;;;24.80;99.90;;;;;;4988366;28;20033;-77
2023/06/21 09:49:27;;;;;;;10.95;4.30;;;24.90;99.90;;;;;;5004433;28;20017;-76
2023/06/21 09:51:53;;;;;;;9.82;4.13;;;24.90;99.90;;;;;;5004140;28;20282;-77
2023/06/21 09:54:19;;;;;;;9.23;3.95;;;;;;;;;;5019877;28;20037;-77
2023/06/21 09:56:45;;;;;;;9.10;4.07;;;23.80;99.90;;;;;;5003414;28;20045;-77
2023/06/21 09:59:21;;;;;;;8.75;3.63;;;25.00;99.90;;;;;;4988033;28;20038;-77
2023/06/21 10:01:49;;;;;;;8.48;3.95;;;25.10;99.90;;;;;;5004128;28;20026;-77
2023/06/21 10:04:17;;;;;;;10.10;4.40;;;25.20;99.90;;;;;;5004188;28;20089;-77
2023/06/21 10:06:54;;;;;;;10.63;4.40;;;25.10;99.90;;;;;;5018691;28;20058;-77
2023/06/21 10:09:19;;;;;;;9.27;4.10;;;25.20;99.90;;;;;;5019049;28;20276;-77
2023/06/21 10:11:48;;;;;;;8.95;4.20;;;25.10;99.90;;;;;;5003309;28;20030;-77
2023/06/21 10:14:26;;;;;;;9.25;3.92;;;25.10;99.90;;;;;;4987951;28;20026;-77
2023/06/21 10:16:56;;;;;;;8.63;3.70;;;25.20;99.90;;;;;;5002931;28;20116;-77
2023/06/21 10:19:24;;;;;;;7.80;3.08;;;25.30;99.90;;;;;;4984028;28;20030;-77
2023/06/21 10:22:07;;;;;;;8.45;3.50;;;25.30;99.90;;;;;;5003568;28;20186;-77
2023/06/21 10:24:42;;;;;;;8.93;3.63;;;25.60;99.90;;;;;;5019962;28;20155;-77
2023/06/21 10:27:10;;;;;;;7.78;3.17;;;25.70;99.90;;;;;;5020145;28;20065;-77
2023/06/21 10:29:38;;;;;;;7.95;3.55;;;25.90;99.90;;;;;;5017198;28;20225;-77
2023/06/21 10:32:05;;;;;;;8.10;3.22;;;25.90;99.90;;;;;;5019239;28;20018;-77
2023/06/21 10:34:40;;;;;;;10.13;3.40;;;26.00;99.90;;;;;;5003614;28;20034;-77
2023/06/21 10:37:21;;;;;;;8.25;3.05;;;26.10;99.90;;;;;;5020044;28;20060;-77
2023/06/21 10:39:51;;;;;;;7.70;2.97;;;26.10;99.90;;;;;;5018617;28;20018;-77
2023/06/21 10:42:17;;;;;;;8.57;3.17;;;26.20;99.90;;;;;;5018525;28;20025;-77
2023/06/21 10:44:43;;;;;;;9.73;3.40;;;26.40;99.90;;;;;;4987191;28;20030;-77
2023/06/21 10:47:10;;;;;;;8.35;2.83;;;26.40;99.90;;;;;;5003760;28;20032;-78
2023/06/21 10:49:36;;;;;;;8.35;3.22;;;26.50;99.90;;;;;;5002779;28;20093;-78
2023/06/21 10:52:03;;;;;;;7.90;2.97;;;26.50;99.90;;;;;;5001595;28;20038;-77
2023/06/21 10:54:30;;;;;;;7.93;3.28;;;26.60;99.90;;;;;;5018000;28;20267;-77
2023/06/21 10:56:56;;;;;;;7.80;2.92;;;26.40;99.90;;;;;;5003372;28;20264;-78
2023/06/21 10:59:25;;;;;;;8.60;2.88;;;26.40;99.90;;;;;;4987109;28;20089;-78
2023/06/21 11:01:52;;;;;;;8.13;2.90;;;26.40;99.90;;;;;;5018524;28;20079;-77
2023/06/21 11:04:18;;;;;;;6.80;2.78;;;26.40;99.90;;;;;;5002985;28;20202;-77
2023/06/21 11:06:44;;;;;;;8.70;3.40;;;26.30;99.90;;;;;;5018506;28;20140;-77
2023/06/21 11:09:11;;;;;;;8.60;3.10;;;26.10;99.90;;;;;;5018526;28;20102;-77
2023/06/21 11:11:47;;;;;;;8.98;3.40;;;26.10;99.90;;;;;;5018243;28;20279;-77
2023/06/21 11:14:13;;;;;;;8.75;3.22;;;26.20;99.90;;;;;;5019299;28;20064;-77
2023/06/21 11:16:39;;;;;;;8.93;3.58;;;27.10;99.90;;;;;;5002924;28;20151;-77
2023/06/21 11:19:10;;;;;;;7.20;2.97;;;26.40;99.90;;;;;;4984825;28;20041;-77
2023/06/21 11:21:47;;;;;;;9.90;3.35;;;26.30;99.90;;;;;;5018282;28;20087;-77
2023/06/21 11:24:17;;;;;;;8.90;3.20;;;26.00;99.90;;;;;;5002830;28;20040;-77
2023/06/21 11:27:03;;;;;;;7.68;3.42;;;25.80;99.90;;;;;;5002791;28;20097;-77
2023/06/21 11:29:38;;;;;;;7.85;3.38;;;25.90;99.90;;;;;;5018071;28;20135;-77
2023/06/21 11:32:14;;;;;;;9.13;3.33;;;25.50;99.90;;;;;;5018153;28;20128;-77
2023/06/21 11:34:56;;;;;;;7.55;3.25;;;25.70;99.90;;;;;;4986904;28;20099;-77
2023/06/21 11:37:47;;;;;;;8.95;3.92;;;25.80;99.90;;;;;;5001694;28;20067;-77
2023/06/21 11:40:15;;;;;;;8.02;3.33;;;25.60;99.90;;;;;;5001635;28;20026;-77
2023/06/21 11:42:46;;;;;;;7.15;2.58;;;25.80;99.90;;;;;;5001868;28;20042;-77
2023/06/21 11:45:35;;;;;;;7.38;3.03;;;25.70;99.90;;;;;;5008796;28;20053;-77
2023/06/21 11:48:08;;;;;;;8.18;3.08;;;25.90;99.90;;;;;;5001788;28;20062;-77
2023/06/21 11:50:41;;;;;;;7.30;2.55;;;25.70;99.90;;;;;;4998132;28;20018;-77
2023/06/21 11:53:16;;;;;;;7.03;2.70;;;26.20;99.90;;;;;;4999920;28;20041;-77
2023/06/21 11:55:42;;;;;;;7.50;3.00;;;26.40;99.90;;;;;;4986729;28;20018;-77
2023/06/21 11:58:09;;;;;;;7.38;2.85;;;26.50;99.90;;;;;;5001543;28;20026;-77
2023/06/21 12:00:35;;;;;;;7.10;2.47;;;26.70;99.90;;;;;;5000644;28;20251;-77
2023/06/21 12:03:06;;;;;;;8.55;2.80;;;26.80;99.90;;;;;;5002284;28;20089;-77
2023/06/21 12:05:52;;;;;;;7.43;2.90;;;27.00;99.90;;;;;;5002315;28;20028;-77
2023/06/21 12:08:19;;;;;;;7.38;2.70;;;27.10;99.90;;;;;;5001378;28;20094;-77
2023/06/21 12:10:46;;;;;;;6.78;2.47;;;27.30;99.90;;;;;;5016622;28;20167;-77
2023/06/21 12:13:13;;;;;;;7.28;2.70;;;27.60;99.90;;;;;;5018778;28;20114;-77
2023/06/21 12:15:46;;;;;;;7.28;2.63;;;27.50;99.90;;;;;;5018448;28;20022;-77
2023/06/21 12:18:12;;;;;;;8.35;2.78;;;27.60;99.90;;;;;;5018541;28;20077;-77
2023/06/21 12:20:38;;;;;;;7.07;2.72;;;27.30;99.90;;;;;;5016631;28;20135;-77
2023/06/21 12:23:07;;;;;;;7.32;2.90;;;27.10;99.90;;;;;;5002338;28;20026;-77
2023/06/21 12:25:45;;;;;;;8.20;3.00;;;26.90;99.90;;;;;;5018292;28;20053;-77
2023/06/21 12:28:13;;;;;;;7.20;2.70;;;27.00;99.90;;;;;;5018547;28;20034;-77
2023/06/21 12:30:59;;;;;;;6.97;2.67;;;27.00;99.90;;;;;;4979091;28;20318;-77
2023/06/21 12:33:34;;;;;;;6.97;2.53;;;27.30;99.90;;;;;;5012486;28;20199;-77
2023/06/21 12:36:18;;;;;;;7.07;2.53;;;27.20;99.90;;;;;;5018277;28;20351;-77
2023/06/21 12:38:48;;;;;;;6.90;2.80;;;27.30;99.90;;;;;;5018073;28;20075;-77